Time;durP1;ratioP1;P1;durP2;ratioP2;P2;SDS_P1;SDS_P2;PMS_P1;PMS_P2;Temp;Humidity;BMP_temperature;BMP_pressure;BME280_temperature;BME280_humidity;BME280_pressure;Samples;Min_cycle;Max_cycle;Signal;HPM_P1;HPM_P2
2022/09/02 00:00:34;;;;;;;4.63;4.23;;;14.60;99.90;;;;;;5071771;28;20669;-57
2022/09/02 00:03:01;;;;;;;4.20;3.80;;;14.50;99.90;;;;;;5072395;28;20259;-57
2022/09/02 00:05:29;;;;;;;4.40;4.00;;;14.60;99.90;;;;;;5072229;28;20276;-57
2022/09/02 00:07:57;;;;;;;4.30;3.90;;;14.50;99.90;;;;;;5072236;28;20201;-56
2022/09/02 00:10:23;;;;;;;4.20;3.80;;;14.50;99.90;;;;;;5072085;28;20205;-56
2022/09/02 00:12:50;;;;;;;4.10;3.80;;;14.50;99.90;;;;;;5071940;28;20201;-57
2022/09/02 00:15:17;;;;;;;4.20;3.80;;;14.30;99.90;;;;;;5072197;28;20228;-57
2022/09/02 00:17:44;;;;;;;4.27;3.83;;;14.30;99.90;;;;;;5072198;28;20236;-57
2022/09/02 00:20:11;;;;;;;4.63;3.93;;;14.30;99.90;;;;;;5071940;28;20200;-57
2022/09/02 00:22:38;;;;;;;4.40;3.63;;;14.30;99.90;;;;;;5071992;28;20225;-57
2022/09/02 00:25:07;;;;;;;7.00;3.80;;;14.30;99.90;;;;;;5071964;28;20229;-57
2022/09/02 00:27:34;;;;;;;6.27;3.90;;;14.30;99.90;;;;;;5071797;28;20205;-57
2022/09/02 00:30:00;;;;;;;6.03;3.90;;;14.40;99.90;;;;;;5071708;28;20205;-57
2022/09/02 00:32:27;;;;;;;4.97;3.87;;;14.30;99.90;;;;;;5071879;28;20302;-57
2022/09/02 00:34:54;;;;;;;7.77;4.10;;;14.30;99.90;;;;;;5071779;28;20597;-57
2022/09/02 00:37:23;;;;;;;3.60;3.30;;;14.20;99.90;;;;;;5071758;28;20299;-58
2022/09/02 00:39:51;;;;;;;4.57;4.10;;;14.10;99.90;;;;;;5071347;28;20205;-58
2022/09/02 00:42:19;;;;;;;4.63;3.90;;;14.20;99.90;;;;;;5071783;28;20310;-58
2022/09/02 00:44:47;;;;;;;5.90;3.83;;;14.20;99.90;;;;;;5071593;28;20859;-58
2022/09/02 00:47:14;;;;;;;5.90;4.20;;;14.20;99.90;;;;;;5071642;28;20251;-61
2022/09/02 00:49:45;;;;;;;3.83;3.53;;;14.10;99.90;;;;;;5071445;28;20747;-58
2022/09/02 00:52:15;;;;;;;3.60;3.30;;;14.10;99.90;;;;;;5071749;28;20205;-58
2022/09/02 00:54:48;;;;;;;4.30;3.90;;;14.10;99.90;;;;;;5064360;28;20247;-58
2022/09/02 00:57:18;;;;;;;4.13;3.73;;;14.00;99.90;;;;;;5055358;28;20197;-61
2022/09/02 00:59:53;;;;;;;4.60;3.60;;;13.90;99.90;;;;;;5070338;28;20209;-60
2022/09/02 01:02:22;;;;;;;4.27;3.90;;;13.80;99.90;;;;;;5070809;28;20350;-62
2022/09/02 01:04:49;;;;;;;5.03;3.80;;;13.80;99.90;;;;;;5074141;28;20719;-56
2022/09/02 01:07:16;;;;;;;4.03;3.63;;;13.80;99.90;;;;;;5075533;28;20212;-57
2022/09/02 01:09:43;;;;;;;4.37;3.57;;;13.80;99.90;;;;;;5075404;28;20231;-56
2022/09/02 01:12:12;;;;;;;5.43;4.37;;;13.80;99.90;;;;;;5075389;28;20208;-56
2022/09/02 01:14:39;;;;;;;5.77;3.73;;;13.80;99.90;;;;;;5075167;28;20228;-56
2022/09/02 01:17:07;;;;;;;3.93;3.60;;;13.70;99.90;;;;;;5075197;28;20699;-57
2022/09/02 01:19:38;;;;;;;4.00;3.57;;;13.70;99.90;;;;;;5074955;28;20299;-57
2022/09/02 01:22:16;;;;;;;4.03;3.63;;;13.50;99.90;;;;;;5075491;28;20258;-57
2022/09/02 01:24:43;;;;;;;4.10;3.70;;;13.50;99.90;;;;;;5075172;28;20232;-56
2022/09/02 01:27:13;;;;;;;4.13;3.73;;;13.60;99.90;;;;;;5076906;28;20609;-58
2022/09/02 01:29:40;;;;;;;4.40;3.70;;;13.50;99.90;;;;;;5076921;28;20201;-58
2022/09/02 01:32:07;;;;;;;5.13;3.97;;;13.60;99.90;;;;;;5075397;28;20580;-57
2022/09/02 01:34:34;;;;;;;3.83;3.43;;;13.60;99.90;;;;;;5075210;28;20228;-57
2022/09/02 01:37:00;;;;;;;5.00;3.63;;;13.60;99.90;;;;;;5074905;28;20657;-57
2022/09/02 01:39:28;;;;;;;3.60;3.30;;;13.50;99.90;;;;;;5074598;28;20619;-57
2022/09/02 01:41:55;;;;;;;3.67;3.30;;;13.40;99.90;;;;;;5074741;28;20224;-58
2022/09/02 01:44:23;;;;;;;4.03;3.70;;;13.40;99.90;;;;;;5074442;28;20220;-57
2022/09/02 01:46:50;;;;;;;3.53;3.23;;;13.30;99.90;;;;;;5074751;28;20200;-57
2022/09/02 01:49:17;;;;;;;4.53;3.47;;;13.20;99.90;;;;;;5074316;28;20263;-58
2022/09/02 01:51:44;;;;;;;3.67;3.37;;;13.20;99.90;;;;;;5074746;28;20201;-58
2022/09/02 01:54:11;;;;;;;4.07;3.30;;;13.20;99.90;;;;;;5074457;28;20686;-57
2022/09/02 01:56:39;;;;;;;5.50;3.27;;;13.20;99.90;;;;;;5074544;28;20212;-58
2022/09/02 01:59:06;;;;;;;3.70;3.40;;;13.20;99.90;;;;;;5074129;28;20245;-57
2022/09/02 02:01:33;;;;;;;5.60;3.30;;;13.20;99.90;;;;;;5074591;28;20256;-57
2022/09/02 02:04:01;;;;;;;3.63;3.17;;;13.20;99.90;;;;;;5074587;28;20259;-56
2022/09/02 02:06:28;;;;;;;5.40;3.13;;;13.10;99.90;;;;;;5074638;28;20256;-58
2022/09/02 02:08:54;;;;;;;4.67;3.30;;;13.10;99.90;;;;;;5074338;28;20208;-57
2022/09/02 02:11:23;;;;;;;3.70;3.40;;;13.10;99.90;;;;;;5073985;28;20262;-57
2022/09/02 02:13:51;;;;;;;4.00;3.47;;;13.10;99.90;;;;;;5074148;28;20208;-58
2022/09/02 02:16:18;;;;;;;3.57;3.27;;;13.00;99.90;;;;;;5073064;28;20236;-58
2022/09/02 02:18:44;;;;;;;5.67;3.00;;;12.90;99.90;;;;;;5074209;28;20204;-57
2022/09/02 02:21:11;;;;;;;5.97;3.40;;;12.70;99.90;;;;;;5073895;28;20213;-58
2022/09/02 02:23:38;;;;;;;3.20;2.93;;;12.70;99.90;;;;;;5073852;28;20221;-58
2022/09/02 02:26:04;;;;;;;3.20;2.90;;;12.60;99.90;;;;;;5073632;28;20229;-58
2022/09/02 02:28:31;;;;;;;3.80;3.20;;;12.50;99.90;;;;;;5073913;28;20234;-58
2022/09/02 02:30:59;;;;;;;3.57;2.73;;;12.50;99.90;;;;;;5073791;28;20201;-58
2022/09/02 02:33:27;;;;;;;3.40;3.10;;;12.40;99.90;;;;;;5073668;28;20204;-58
2022/09/02 02:35:54;;;;;;;3.27;2.80;;;12.40;99.90;;;;;;5073558;28;20256;-58
2022/09/02 02:38:21;;;;;;;6.07;3.00;;;12.40;99.90;;;;;;5073613;28;20212;-56
2022/09/02 02:40:48;;;;;;;3.37;2.87;;;12.50;99.90;;;;;;5073846;28;20205;-58
2022/09/02 02:43:15;;;;;;;4.77;3.27;;;12.50;99.90;;;;;;5073652;28;20228;-58
2022/09/02 02:45:42;;;;;;;5.53;3.50;;;12.60;99.90;;;;;;5073654;28;20286;-58
2022/09/02 02:48:12;;;;;;;3.50;3.10;;;12.60;99.90;;;;;;5073777;28;20205;-58
2022/09/02 02:50:39;;;;;;;3.00;2.70;;;12.60;99.90;;;;;;5073454;28;20201;-58
2022/09/02 02:53:06;;;;;;;4.10;2.57;;;12.70;99.90;;;;;;5073290;28;20225;-58
2022/09/02 02:55:32;;;;;;;4.93;2.90;;;12.70;99.90;;;;;;5073309;28;20311;-57
2022/09/02 02:58:00;;;;;;;3.40;2.50;;;12.80;99.90;;;;;;5073314;28;20231;-58
2022/09/02 03:00:29;;;;;;;3.10;2.63;;;12.80;99.90;;;;;;5073188;28;20213;-58
2022/09/02 03:02:57;;;;;;;4.27;2.87;;;12.70;99.90;;;;;;5073191;28;20225;-58
2022/09/02 03:05:26;;;;;;;2.80;2.60;;;12.70;99.90;;;;;;5073027;28;20221;-58
2022/09/02 03:07:54;;;;;;;4.50;2.67;;;12.80;99.90;;;;;;5073035;28;20254;-58
2022/09/02 03:10:22;;;;;;;2.97;2.50;;;12.80;99.90;;;;;;5072962;28;20201;-58
2022/09/02 03:12:49;;;;;;;3.43;2.90;;;12.80;99.90;;;;;;5073286;28;20204;-58
2022/09/02 03:15:18;;;;;;;3.50;2.63;;;12.80;99.90;;;;;;5072859;28;20454;-57
2022/09/02 03:17:44;;;;;;;2.87;2.50;;;12.80;99.90;;;;;;5072803;28;20677;-57
2022/09/02 03:20:12;;;;;;;2.70;2.50;;;12.70;99.90;;;;;;5072612;28;20220;-57
2022/09/02 03:22:40;;;;;;;2.93;2.73;;;12.70;99.90;;;;;;5072701;28;20626;-57
2022/09/02 03:25:08;;;;;;;2.80;2.50;;;12.70;99.90;;;;;;5072864;28;20228;-57
2022/09/02 03:27:36;;;;;;;3.90;2.63;;;12.70;99.90;;;;;;5072452;28;20209;-57
2022/09/02 03:30:04;;;;;;;4.00;2.80;;;12.70;99.90;;;;;;5072541;28;20253;-57
2022/09/02 03:32:31;;;;;;;4.63;2.50;;;12.80;99.90;;;;;;5072697;28;20197;-57
2022/09/02 03:34:57;;;;;;;2.93;2.60;;;12.80;99.90;;;;;;5072268;28;20225;-58
2022/09/02 03:37:24;;;;;;;3.30;3.00;;;12.80;99.90;;;;;;5072610;28;20470;-57
2022/09/02 03:39:52;;;;;;;4.03;2.77;;;12.80;99.90;;;;;;5072418;28;20212;-57
2022/09/02 03:42:19;;;;;;;3.27;2.80;;;12.90;99.90;;;;;;5072319;28;20229;-57
2022/09/02 03:44:46;;;;;;;3.13;2.70;;;12.90;99.90;;;;;;5072315;28;20221;-58
2022/09/02 03:47:16;;;;;;;3.63;2.60;;;12.90;99.90;;;;;;5072228;28;20209;-58
2022/09/02 03:49:43;;;;;;;2.80;2.57;;;12.90;99.90;;;;;;5072101;28;20694;-57
2022/09/02 03:52:09;;;;;;;3.07;2.53;;;12.90;99.90;;;;;;5072489;28;20702;-56
2022/09/02 03:54:36;;;;;;;3.67;3.10;;;12.90;99.90;;;;;;5072327;28;20224;-57
2022/09/02 03:57:04;;;;;;;2.73;2.40;;;12.90;99.90;;;;;;5072154;28;20266;-56
2022/09/02 03:59:31;;;;;;;3.73;3.07;;;13.00;99.90;;;;;;5071883;28;20602;-57
2022/09/02 04:01:58;;;;;;;3.57;2.57;;;13.10;99.90;;;;;;5071974;28;20209;-57
2022/09/02 04:04:24;;;;;;;3.27;2.90;;;13.00;99.90;;;;;;5072038;28;20208;-57
2022/09/02 04:06:51;;;;;;;3.43;2.80;;;13.00;99.90;;;;;;5072133;28;20209;-57
2022/09/02 04:09:18;;;;;;;3.53;2.73;;;13.00;99.90;;;;;;5071677;28;20231;-57
2022/09/02 04:11:45;;;;;;;4.53;2.97;;;13.10;99.90;;;;;;5072002;28;20215;-58
2022/09/02 04:14:14;;;;;;;3.17;2.80;;;13.10;99.90;;;;;;5071930;28;20201;-56
2022/09/02 04:16:41;;;;;;;3.63;2.37;;;13.10;99.90;;;;;;5087083;22;20286;-60
2022/09/02 04:19:08;;;;;;;3.27;2.40;;;13.10;99.90;;;;;;5069833;28;20201;-60
2022/09/02 04:21:36;;;;;;;3.00;2.27;;;13.00;99.90;;;;;;5071689;28;20211;-60
2022/09/02 04:24:03;;;;;;;3.10;2.40;;;12.90;99.90;;;;;;5071871;28;20229;-60
2022/09/02 04:26:30;;;;;;;2.50;2.30;;;13.00;99.90;;;;;;5071641;28;20278;-60
2022/09/02 04:28:57;;;;;;;2.93;2.30;;;13.00;99.90;;;;;;5071655;28;20211;-60
2022/09/02 04:31:28;;;;;;;2.53;2.33;;;12.90;99.90;;;;;;5071598;28;20678;-60
2022/09/02 04:33:55;;;;;;;4.30;2.40;;;12.80;99.90;;;;;;5072061;28;20205;-60
2022/09/02 04:36:23;;;;;;;5.37;2.50;;;12.90;99.90;;;;;;5071813;28;20221;-60
2022/09/02 04:38:50;;;;;;;3.50;2.60;;;13.00;99.90;;;;;;5071350;28;20255;-60
2022/09/02 04:41:19;;;;;;;3.37;1.97;;;13.00;99.90;;;;;;5071622;28;20236;-60
2022/09/02 04:43:46;;;;;;;2.53;2.33;;;13.00;99.90;;;;;;5071558;28;20225;-60
2022/09/02 04:46:15;;;;;;;2.53;2.30;;;13.00;99.90;;;;;;5071858;28;20651;-60
2022/09/02 04:48:44;;;;;;;2.70;2.50;;;13.00;99.90;;;;;;5071864;28;20208;-60
2022/09/02 04:51:14;;;;;;;2.97;2.33;;;13.00;99.90;;;;;;5071360;28;20208;-60
2022/09/02 04:53:42;;;;;;;5.90;2.50;;;13.00;99.90;;;;;;5071687;28;20255;-60
2022/09/02 04:56:12;;;;;;;3.53;2.17;;;13.00;99.90;;;;;;5071415;28;20228;-60
2022/09/02 04:58:39;;;;;;;3.87;2.37;;;13.00;99.90;;;;;;5071738;28;20215;-63
2022/09/02 05:01:06;;;;;;;2.33;2.07;;;12.90;99.90;;;;;;5071439;28;20216;-60
2022/09/02 05:03:33;;;;;;;2.60;2.30;;;12.90;99.90;;;;;;5071512;28;20573;-60
2022/09/02 05:06:03;;;;;;;2.77;2.23;;;12.90;99.90;;;;;;5071405;28;20220;-60
2022/09/02 05:08:30;;;;;;;2.90;2.40;;;12.90;99.90;;;;;;5071534;28;20580;-60
2022/09/02 05:10:57;;;;;;;3.00;2.17;;;13.00;99.90;;;;;;5071099;28;20205;-60
2022/09/02 05:13:24;;;;;;;2.90;2.47;;;12.90;99.90;;;;;;5071553;28;20204;-60
2022/09/02 05:15:53;;;;;;;3.83;2.70;;;13.00;99.90;;;;;;5071247;28;20250;-60
2022/09/02 05:18:20;;;;;;;2.87;2.30;;;13.10;99.90;;;;;;5071459;28;20205;-60
2022/09/02 05:20:46;;;;;;;4.43;2.30;;;13.10;99.90;;;;;;5071195;28;20259;-60
2022/09/02 05:23:14;;;;;;;2.90;2.03;;;13.20;99.90;;;;;;5071205;28;20233;-60
2022/09/02 05:25:41;;;;;;;5.13;2.80;;;13.20;99.90;;;;;;5071365;28;20231;-60
2022/09/02 05:28:09;;;;;;;3.17;2.60;;;13.30;99.90;;;;;;5071799;28;20583;-60
2022/09/02 05:30:35;;;;;;;2.87;2.10;;;13.40;99.90;;;;;;5071273;28;20565;-60
2022/09/02 05:33:02;;;;;;;2.37;2.17;;;13.40;99.90;;;;;;5071405;28;20231;-60
2022/09/02 05:35:29;;;;;;;2.83;2.30;;;13.50;99.90;;;;;;5071387;28;20270;-59
2022/09/02 05:37:56;;;;;;;4.77;2.30;;;13.50;99.90;;;;;;5071412;28;20209;-60
2022/09/02 05:40:24;;;;;;;2.80;2.37;;;13.60;99.90;;;;;;5071407;28;20406;-60
2022/09/02 05:42:51;;;;;;;3.27;1.80;;;14.00;99.90;;;;;;5071377;28;20259;-60
2022/09/02 05:45:18;;;;;;;1.83;1.67;;;15.10;99.90;;;;;;5071358;28;20492;-60
2022/09/02 05:47:45;;;;;;;2.63;1.83;;;16.40;99.90;;;;;;5071165;28;20204;-61
2022/09/02 05:50:13;;;;;;;2.20;1.80;;;17.90;99.90;;;;;;5071087;28;20209;-61
2022/09/02 05:52:40;;;;;;;2.40;1.80;;;19.30;99.90;;;;;;5074832;28;20262;-60
2022/09/02 05:55:07;;;;;;;2.13;1.63;;;20.60;99.90;;;;;;5074597;28;20229;-60
2022/09/02 05:57:36;;;;;;;2.60;1.67;;;21.60;99.90;;;;;;5074441;28;20209;-60
2022/09/02 06:00:04;;;;;;;3.38;1.70;;;22.50;99.90;;;;;;5074387;28;20205;-60
2022/09/02 06:02:31;;;;;;;3.38;1.67;;;23.30;99.90;;;;;;5074718;28;20208;-61
2022/09/02 06:04:58;;;;;;;4.40;1.60;;;24.10;99.90;;;;;;5074614;28;20229;-61
2022/09/02 06:07:25;;;;;;;4.72;1.60;;;24.60;98.00;;;;;;5075954;28;20207;-61
2022/09/02 06:09:52;;;;;;;2.15;1.50;;;25.00;97.00;;;;;;5074643;28;20637;-61
2022/09/02 06:12:20;;;;;;;3.17;1.45;;;25.60;95.20;;;;;;5075579;28;20204;-61
2022/09/02 06:14:48;;;;;;;2.95;1.65;;;26.20;93.40;;;;;;5075436;28;20726;-62
2022/09/02 06:17:15;;;;;;;1.83;1.55;;;26.80;91.50;;;;;;5075539;28;20705;-61
2022/09/02 06:19:42;;;;;;;2.80;1.75;;;27.50;89.10;;;;;;5076305;28;20541;-61
2022/09/02 06:22:09;;;;;;;3.63;1.88;;;27.90;85.80;;;;;;5074413;28;20672;-62
2022/09/02 06:24:36;;;;;;;2.72;1.80;;;28.30;84.30;;;;;;5076170;28;20225;-61
2022/09/02 06:27:02;;;;;;;2.55;1.70;;;28.90;80.40;;;;;;5075346;28;20220;-62
2022/09/02 06:29:30;;;;;;;3.85;2.08;;;29.50;77.30;;;;;;5074217;28;20570;-61
2022/09/02 06:31:58;;;;;;;4.07;1.50;;;29.60;76.10;;;;;;5073837;28;20674;-62
2022/09/02 06:34:26;;;;;;;4.90;1.65;;;29.80;74.10;;;;;;5074322;28;20288;-62
2022/09/02 06:36:53;;;;;;;1.67;1.48;;;30.10;72.60;;;;;;5074040;28;20235;-61
2022/09/02 06:39:22;;;;;;;4.75;1.65;;;30.30;71.10;;;;;;5073804;28;20212;-62
2022/09/02 06:41:49;;;;;;;1.85;1.30;;;30.60;69.20;;;;;;5073390;28;20201;-62
2022/09/02 06:44:17;;;;;;;2.15;1.52;;;30.80;67.10;;;;;;5073352;28;20221;-59
2022/09/02 06:46:46;;;;;;;2.97;1.73;;;31.10;67.00;;;;;;5073194;28;20225;-59
2022/09/02 06:49:16;;;;;;;2.25;1.30;;;31.60;64.80;;;;;;5073645;28;20498;-59
2022/09/02 06:51:45;;;;;;;3.88;1.50;;;32.10;62.90;;;;;;5073074;28;20296;-59
2022/09/02 06:54:14;;;;;;;2.80;1.52;;;32.70;61.80;;;;;;5073305;28;20200;-59
2022/09/02 06:56:41;;;;;;;1.92;1.33;;;33.20;59.70;;;;;;5073010;28;20229;-59
2022/09/02 06:59:08;;;;;;;2.22;2.03;;;33.70;58.70;;;;;;5073101;28;20205;-59
2022/09/02 07:01:35;;;;;;;3.33;1.50;;;34.20;57.00;;;;;;5072615;28;20209;-58
2022/09/02 07:06:51;;;;;;;4.60;1.70;;;35.70;52.90;;;;;;5072960;28;20362;-59
2022/09/02 07:09:21;;;;;;;2.17;1.30;;;36.20;51.80;;;;;;5073014;28;20274;-59
2022/09/02 07:11:49;;;;;;;2.33;1.40;;;36.70;50.20;;;;;;5072789;28;20208;-59
2022/09/02 07:14:17;;;;;;;3.05;1.40;;;36.60;49.40;;;;;;5072671;28;20641;-59
2022/09/02 07:16:46;;;;;;;2.58;1.50;;;36.50;49.80;;;;;;5072387;28;20239;-59
2022/09/02 07:19:14;;;;;;;1.52;1.20;;;36.60;49.40;;;;;;5072963;28;20204;-59
2022/09/02 07:21:41;;;;;;;1.98;1.35;;;36.90;48.50;;;;;;5072569;28;20209;-59
2022/09/02 07:24:11;;;;;;;1.85;1.42;;;37.10;48.20;;;;;;5072566;28;20671;-60
2022/09/02 07:26:38;;;;;;;2.72;1.38;;;36.90;47.60;;;;;;5072646;28;20228;-59
2022/09/02 07:29:07;;;;;;;2.83;1.25;;;36.10;48.60;;;;;;5072817;28;20302;-59
2022/09/02 07:31:35;;;;;;;1.70;1.40;;;35.40;49.30;;;;;;5072499;28;20205;-59
2022/09/02 07:34:02;;;;;;;3.65;1.40;;;34.90;49.60;;;;;;5072572;28;20251;-58
2022/09/02 07:36:28;;;;;;;2.15;1.40;;;33.70;51.80;;;;;;5072226;28;20224;-59
2022/09/02 07:38:55;;;;;;;2.60;1.30;;;32.60;52.90;;;;;;5072576;28;20212;-58
2022/09/02 07:41:23;;;;;;;1.67;1.40;;;32.10;54.10;;;;;;5072004;28;20201;-58
2022/09/02 07:43:50;;;;;;;3.00;1.50;;;32.30;53.80;;;;;;5072115;28;20228;-58
2022/09/02 07:46:18;;;;;;;2.47;1.27;;;32.30;54.10;;;;;;5072117;28;20225;-58
2022/09/02 07:48:45;;;;;;;2.17;1.35;;;31.90;54.60;;;;;;5072251;28;20205;-59
2022/09/02 07:51:11;;;;;;;4.78;1.67;;;32.10;54.20;;;;;;5071934;28;20213;-58
2022/09/02 07:53:38;;;;;;;1.77;1.33;;;32.60;53.80;;;;;;5072196;28;20632;-59
2022/09/02 07:56:05;;;;;;;3.08;1.27;;;32.70;53.30;;;;;;5072061;28;20257;-58
2022/09/02 07:58:33;;;;;;;1.85;1.20;;;33.10;52.60;;;;;;5072131;28;20231;-59
2022/09/02 08:01:00;;;;;;;1.85;1.38;;;32.70;52.60;;;;;;5071900;28;20215;-59
2022/09/02 08:03:27;;;;;;;9.38;1.67;;;32.50;53.00;;;;;;5071783;28;20282;-58
2022/09/02 08:05:56;;;;;;;5.70;1.52;;;32.10;53.90;;;;;;5071684;28;20229;-59
2022/09/02 08:08:25;;;;;;;2.47;1.27;;;31.80;53.90;;;;;;5072253;28;20209;-58
2022/09/02 08:10:53;;;;;;;1.85;1.20;;;31.30;54.70;;;;;;5071629;28;20607;-59
2022/09/02 08:13:19;;;;;;;3.80;1.20;;;30.20;57.00;;;;;;5071034;28;20232;-58
2022/09/02 08:15:48;;;;;;;3.45;1.20;;;28.50;58.90;;;;;;5071497;28;20286;-58
2022/09/02 08:18:15;;;;;;;1.85;1.30;;;26.70;63.60;;;;;;5071763;28;20216;-58
2022/09/02 08:20:42;;;;;;;2.13;1.20;;;25.40;67.20;;;;;;5071952;28;20258;-58
2022/09/02 08:23:09;;;;;;;1.95;1.42;;;24.50;70.40;;;;;;5071912;28;20204;-59
2022/09/02 08:25:37;;;;;;;4.60;1.30;;;23.90;71.60;;;;;;5071918;28;20252;-58
2022/09/02 08:28:04;;;;;;;2.50;1.08;;;23.20;74.50;;;;;;5071677;28;20270;-59
2022/09/02 08:30:31;;;;;;;1.83;1.20;;;22.60;75.60;;;;;;5071520;28;20349;-58
2022/09/02 08:32:59;;;;;;;2.75;1.10;;;22.00;77.20;;;;;;5071658;28;20209;-58
2022/09/02 08:35:25;;;;;;;1.90;1.30;;;21.60;79.00;;;;;;5071505;28;20704;-58
2022/09/02 08:37:52;;;;;;;2.75;1.38;;;21.40;80.50;;;;;;5071696;28;20204;-58
2022/09/02 08:40:21;;;;;;;2.17;1.38;;;21.30;82.10;;;;;;5071409;28;20209;-58
2022/09/02 08:42:51;;;;;;;1.38;1.25;;;21.20;83.30;;;;;;5071493;28;20254;-59
2022/09/02 08:45:23;;;;;;;2.45;1.10;;;21.20;84.10;;;;;;5071559;28;20282;-59
2022/09/02 08:47:58;;;;;;;2.38;1.23;;;21.10;84.90;;;;;;5071563;28;20215;-59
2022/09/02 08:50:26;;;;;;;2.65;1.10;;;21.20;85.00;;;;;;5071269;28;20729;-59
2022/09/02 08:53:01;;;;;;;4.50;1.20;;;21.10;85.10;;;;;;5071628;28;20231;-59
2022/09/02 08:55:35;;;;;;;1.85;1.20;;;21.10;84.70;;;;;;5071587;28;20216;-59
2022/09/02 08:58:02;;;;;;;1.63;1.20;;;21.20;84.90;;;;;;5071295;28;20205;-59
2022/09/02 09:00:34;;;;;;;1.88;1.13;;;21.30;85.50;;;;;;5071367;28;20262;-60
2022/09/02 09:03:08;;;;;;;1.70;1.10;;;21.30;85.80;;;;;;5071409;28;20630;-59
2022/09/02 09:05:46;;;;;;;1.00;0.90;;;21.30;86.40;;;;;;5071341;28;20233;-59
2022/09/02 09:08:19;;;;;;;2.72;1.20;;;21.40;86.40;;;;;;5071342;28;20299;-60
2022/09/02 09:10:56;;;;;;;1.25;1.13;;;21.50;85.50;;;;;;5071293;28;20203;-59
2022/09/02 09:13:54;;;;;;;2.13;1.15;;;21.60;84.80;;;;;;5071386;28;20208;-60
2022/09/02 09:16:30;;;;;;;4.90;1.20;;;21.70;84.50;;;;;;5064178;28;20248;-60
2022/09/02 09:19:02;;;;;;;1.73;1.00;;;21.70;84.80;;;;;;5074309;28;20215;-59
2022/09/02 09:21:32;;;;;;;2.08;1.10;;;21.80;83.70;;;;;;5073617;28;20213;-60
2022/09/02 09:24:03;;;;;;;1.52;1.10;;;21.90;82.80;;;;;;5072185;28;20229;-59
2022/09/02 09:26:34;;;;;;;1.75;1.27;;;21.90;83.00;;;;;;5076420;28;20670;-60
2022/09/02 09:29:04;;;;;;;1.67;0.98;;;22.00;82.50;;;;;;5075536;28;20200;-60
2022/09/02 09:31:34;;;;;;;1.00;0.80;;;22.10;82.60;;;;;;5074829;28;20212;-60
2022/09/02 09:34:03;;;;;;;1.98;0.93;;;22.30;81.80;;;;;;5075162;28;20225;-60
2022/09/02 09:36:58;;;;;;;1.20;0.80;;;22.30;79.40;;;;;;5074756;28;20234;-58
2022/09/02 09:39:28;;;;;;;1.33;0.90;;;22.30;79.30;;;;;;5028075;28;20205;-58
2022/09/02 09:41:56;;;;;;;3.13;0.88;;;22.20;78.80;;;;;;5074852;28;20200;-58
2022/09/02 09:44:44;;;;;;;1.65;1.05;;;22.20;78.80;;;;;;5074861;28;20661;-58
2022/09/02 09:47:18;;;;;;;1.85;1.13;;;22.30;79.00;;;;;;5068994;28;20205;-58
2022/09/02 09:49:46;;;;;;;2.58;1.30;;;22.50;77.70;;;;;;5075166;28;20236;-59
2022/09/02 09:52:24;;;;;;;3.97;1.10;;;22.50;75.20;;;;;;5075410;28;20316;-59
2022/09/02 09:55:08;;;;;;;3.38;0.95;;;22.60;75.30;;;;;;5075328;28;20603;-59
2022/09/02 09:57:34;;;;;;;1.45;0.80;;;22.50;75.00;;;;;;5075035;28;20201;-59
2022/09/02 10:00:02;;;;;;;1.52;1.00;;;22.60;75.50;;;;;;5064120;28;20202;-59
2022/09/02 10:02:29;;;;;;;2.33;1.02;;;22.80;74.30;;;;;;5055330;28;20280;-59
2022/09/02 10:05:15;;;;;;;2.40;1.17;;;23.30;73.40;;;;;;5055069;28;20244;-59
2022/09/02 10:07:54;;;;;;;3.85;1.15;;;23.00;73.10;;;;;;5053968;28;20213;-60
2022/09/02 10:10:23;;;;;;;1.67;0.73;;;23.20;72.70;;;;;;5052920;28;20212;-60
2022/09/02 10:12:53;;;;;;;2.47;1.27;;;23.30;72.00;;;;;;5053148;28;20205;-59
2022/09/02 10:15:29;;;;;;;1.55;1.02;;;23.30;72.30;;;;;;5080090;22;20291;-57
2022/09/02 10:18:04;;;;;;;1.65;1.00;;;23.20;72.50;;;;;;5065266;28;20200;-57
2022/09/02 10:20:41;;;;;;;2.67;1.15;;;23.30;71.60;;;;;;5053337;28;20209;-56
2022/09/02 10:23:23;;;;;;;3.17;0.85;;;23.40;71.50;;;;;;5053253;28;20243;-56
2022/09/02 10:25:59;;;;;;;1.85;0.90;;;23.60;72.40;;;;;;5053695;28;20660;-54
2022/09/02 10:28:40;;;;;;;2.28;0.73;;;23.60;70.90;;;;;;5053857;28;20719;-61
2022/09/02 10:31:17;;;;;;;2.00;1.23;;;23.70;69.40;;;;;;5053051;28;20213;-59
2022/09/02 10:33:59;;;;;;;2.20;1.15;;;23.80;67.70;;;;;;5052836;28;20552;-58
2022/09/02 10:36:35;;;;;;;1.08;0.95;;;23.70;68.10;;;;;;5052291;28;20776;-55
2022/09/02 10:39:14;;;;;;;2.13;1.10;;;23.60;68.00;;;;;;5053352;28;20292;-58
2022/09/02 10:41:45;;;;;;;1.05;0.70;;;23.50;68.50;;;;;;5055387;28;20210;-62
2022/09/02 10:44:32;;;;;;;3.85;1.20;;;23.50;67.80;;;;;;5056078;28;20212;-58
2022/09/02 10:47:02;;;;;;;2.58;0.77;;;23.60;68.10;;;;;;5053202;28;20252;-56
2022/09/02 10:49:52;;;;;;;2.90;0.90;;;23.70;67.50;;;;;;5052854;28;20201;-57
2022/09/02 10:52:37;;;;;;;3.40;1.10;;;23.80;67.40;;;;;;5052776;28;20202;-57
2022/09/02 10:55:15;;;;;;;2.42;0.80;;;24.00;66.30;;;;;;5052975;28;20719;-57
2022/09/02 10:57:47;;;;;;;2.08;0.90;;;23.90;66.20;;;;;;5052641;28;20275;-58
2022/09/02 11:00:17;;;;;;;1.05;0.77;;;24.00;66.50;;;;;;5052136;28;20275;-57
2022/09/02 11:02:51;;;;;;;1.75;0.88;;;24.10;66.70;;;;;;5052662;28;20510;-57
2022/09/02 11:05:23;;;;;;;2.53;1.05;;;24.10;65.00;;;;;;5052474;28;20283;-57
2022/09/02 11:07:53;;;;;;;2.88;0.88;;;24.10;64.70;;;;;;5052755;28;20210;-57
2022/09/02 11:10:26;;;;;;;2.42;1.20;;;24.20;64.70;;;;;;5051721;28;20626;-57
2022/09/02 11:13:00;;;;;;;3.85;0.90;;;24.30;64.10;;;;;;5052169;28;20665;-58
2022/09/02 11:15:38;;;;;;;3.42;0.85;;;24.50;64.10;;;;;;5052018;28;20232;-57
2022/09/02 11:18:12;;;;;;;1.42;0.52;;;24.70;64.80;;;;;;5052533;28;20213;-58
2022/09/02 11:20:45;;;;;;;3.20;0.90;;;24.80;62.40;;;;;;5051670;28;20209;-58
2022/09/02 11:23:19;;;;;;;1.00;0.90;;;24.90;61.90;;;;;;5052049;28;20708;-59
2022/09/02 11:25:53;;;;;;;2.47;0.75;;;24.90;61.30;;;;;;5051953;28;20251;-57
2022/09/02 11:28:30;;;;;;;4.63;1.20;;;24.90;61.20;;;;;;5052449;28;20204;-57
2022/09/02 11:31:05;;;;;;;2.08;1.10;;;25.00;61.80;;;;;;5051826;28;20665;-58
2022/09/02 11:33:43;;;;;;;3.92;0.80;;;25.20;61.60;;;;;;5052200;28;20209;-59
2022/09/02 11:36:10;;;;;;;2.72;1.15;;;25.30;60.40;;;;;;5051746;28;20221;-56
2022/09/02 11:38:42;;;;;;;2.33;1.02;;;25.10;61.20;;;;;;5052117;28;20213;-60
2022/09/02 11:41:31;;;;;;;5.30;1.00;;;24.90;61.10;;;;;;5051789;28;20210;-57
2022/09/02 11:44:06;;;;;;;1.50;0.73;;;24.90;61.10;;;;;;5051762;28;20248;-57
2022/09/02 11:46:59;;;;;;;2.47;0.90;;;24.90;60.80;;;;;;5051351;28;20233;-57
2022/09/02 11:49:46;;;;;;;1.60;0.80;;;24.70;60.60;;;;;;5051959;28;20303;-58
2022/09/02 11:52:27;;;;;;;1.98;0.98;;;24.60;60.00;;;;;;5051598;28;20213;-57
2022/09/02 11:55:06;;;;;;;2.13;0.90;;;24.70;60.30;;;;;;5051844;28;20239;-58
2022/09/02 11:57:34;;;;;;;0.70;0.70;;;24.60;60.60;;;;;;5051368;28;20704;-58
2022/09/02 12:00:07;;;;;;;0.75;0.70;;;24.70;60.30;;;;;;5051305;28;20209;-56
2022/09/02 12:02:42;;;;;;;1.00;0.85;;;24.90;60.50;;;;;;5051458;28;20248;-56
2022/09/02 12:05:46;;;;;;;1.25;1.05;;;25.00;59.30;;;;;;5051204;28;20228;-57
2022/09/02 12:08:34;;;;;;;1.88;0.90;;;25.10;59.30;;;;;;5051423;28;20205;-58
2022/09/02 12:11:03;;;;;;;1.02;0.85;;;24.90;58.30;;;;;;5050698;28;20212;-57
2022/09/02 12:13:37;;;;;;;2.22;0.77;;;24.80;58.70;;;;;;5051207;28;20210;-58
2022/09/02 12:16:40;;;;;;;1.95;0.80;;;24.80;58.60;;;;;;5051451;28;20230;-59
2022/09/02 12:19:40;;;;;;;3.33;0.77;;;24.90;58.80;;;;;;5051119;28;20212;-58
2022/09/02 12:22:37;;;;;;;0.93;0.75;;;25.00;58.60;;;;;;5050712;28;20205;-58
2022/09/02 12:25:20;;;;;;;1.05;0.50;;;25.00;58.90;;;;;;5051203;28;20221;-57
2022/09/02 12:27:48;;;;;;;1.13;0.95;;;25.00;59.50;;;;;;5051265;28;20209;-57
2022/09/02 12:30:55;;;;;;;1.70;0.60;;;25.00;58.10;;;;;;5050953;28;20205;-58
2022/09/02 12:33:31;;;;;;;1.40;0.75;;;25.10;58.10;;;;;;5050877;28;20236;-58
2022/09/02 12:35:58;;;;;;;1.15;0.73;;;25.20;58.50;;;;;;5050593;28;20225;-57
2022/09/02 12:38:31;;;;;;;5.95;1.00;;;25.40;58.60;;;;;;5050860;28;20201;-58
2022/09/02 12:41:22;;;;;;;1.58;0.80;;;25.60;58.00;;;;;;5050535;28;20677;-58
2022/09/02 12:44:09;;;;;;;1.33;0.90;;;25.70;57.50;;;;;;5049217;28;20684;-57
2022/09/02 12:47:03;;;;;;;1.65;1.05;;;25.60;58.80;;;;;;5050559;28;20316;-58
2022/09/02 12:49:47;;;;;;;1.73;0.77;;;25.60;58.00;;;;;;5050951;28;20213;-58
2022/09/02 12:52:39;;;;;;;1.80;0.93;;;25.70;57.20;;;;;;5050800;28;20214;-58
2022/09/02 12:55:12;;;;;;;1.08;0.80;;;25.70;56.70;;;;;;5051090;28;20728;-57
2022/09/02 12:57:40;;;;;;;1.05;0.70;;;25.80;57.00;;;;;;5051144;28;20210;-58
2022/09/02 13:00:12;;;;;;;1.05;0.60;;;25.80;56.10;;;;;;5052035;28;20209;-58
2022/09/02 13:02:52;;;;;;;1.67;0.82;;;25.80;56.30;;;;;;5054810;28;20213;-57
2022/09/02 13:05:26;;;;;;;1.85;1.00;;;25.90;56.20;;;;;;5054603;28;20228;-57
2022/09/02 13:08:22;;;;;;;1.25;0.60;;;25.90;56.20;;;;;;5054534;28;20205;-57